Terminal Aerodrome Forecast
Issued by NWS

Home | Current Version | Previous Version | Text Only | Print | Product List | Glossary On
Versions: 1 2 3 4 5 6 7 8 9 10 11 12 13 14
000
FTUS45 KRIW 021126
TAFCPR
TAF
KCPR 021126Z 0212/0312 VRB05KT P6SM -SN SCT014 OVC028
      TEMPO 0212/0215 BKN014
     FM021500 VRB05KT P6SM SCT020 BKN040
     FM030100 22007KT P6SM SKC
     FM030900 22014G20KT P6SM SKC=

USA.gov is the U.S. government's official web portal to all federal, state and local government web resources and services.